Time;durP1;ratioP1;P1;durP2;ratioP2;P2;SDS_P1;SDS_P2;PMS_P1;PMS_P2;Temp;Humidity;BMP_temperature;BMP_pressure;BME280_temperature;BME280_humidity;BME280_pressure;Samples;Min_cycle;Max_cycle;Signal;HPM_P1;HPM_P2
2021/08/06 00:00:05;;;;;;;8.40;7.68;;;15.50;99.90;;;;;;3568470;40;20254;-42
2021/08/06 00:02:38;;;;;;;8.48;7.15;;;15.40;99.90;;;;;;3568447;40;20259;-43
2021/08/06 00:05:06;;;;;;;7.60;6.93;;;15.30;99.90;;;;;;3568347;40;20318;-43
2021/08/06 00:07:33;;;;;;;8.18;7.47;;;15.50;99.90;;;;;;3568749;40;20246;-43
2021/08/06 00:10:01;;;;;;;8.93;8.20;;;15.50;99.90;;;;;;3568611;40;20246;-43
2021/08/06 00:12:28;;;;;;;8.48;7.68;;;15.50;99.90;;;;;;3568378;40;20526;-41
2021/08/06 00:14:56;;;;;;;9.05;8.00;;;15.50;99.90;;;;;;3568510;40;20470;-42
2021/08/06 00:17:23;;;;;;;9.27;8.43;;;15.60;99.90;;;;;;3568305;40;20607;-43
2021/08/06 00:19:51;;;;;;;10.82;7.68;;;15.60;99.90;;;;;;3568964;40;20247;-42
2021/08/06 00:22:18;;;;;;;10.00;9.07;;;15.60;99.90;;;;;;3571263;40;20243;-44
2021/08/06 00:24:45;;;;;;;11.23;7.05;;;15.60;99.90;;;;;;3570392;40;20247;-43
2021/08/06 00:27:12;;;;;;;8.60;7.82;;;15.60;99.90;;;;;;3570001;40;20280;-43
2021/08/06 00:29:39;;;;;;;8.55;7.75;;;15.60;99.90;;;;;;3572605;40;20266;-46
2021/08/06 00:32:07;;;;;;;8.60;7.90;;;15.70;99.90;;;;;;3573929;40;20280;-41
2021/08/06 00:34:36;;;;;;;9.45;8.70;;;15.70;99.90;;;;;;3569817;40;20238;-43
2021/08/06 00:37:06;;;;;;;9.57;8.57;;;15.70;99.90;;;;;;3572088;40;20509;-44
2021/08/06 00:39:38;;;;;;;8.25;7.53;;;15.60;99.90;;;;;;3572767;40;20317;-42
2021/08/06 00:42:07;;;;;;;8.18;7.65;;;15.60;99.90;;;;;;3573216;40;20339;-40
2021/08/06 00:44:35;;;;;;;9.77;8.93;;;15.60;99.90;;;;;;3570865;40;20235;-43
2021/08/06 00:47:03;;;;;;;10.48;9.57;;;15.60;99.90;;;;;;3569904;40;20272;-42
2021/08/06 00:49:31;;;;;;;9.57;8.88;;;15.60;99.90;;;;;;3567904;40;20517;-42
2021/08/06 00:51:58;;;;;;;11.98;10.65;;;15.70;99.90;;;;;;3571269;40;20239;-40
2021/08/06 00:54:28;;;;;;;11.80;10.60;;;15.60;99.90;;;;;;3577567;40;20246;-39
2021/08/06 00:57:17;;;;;;;11.40;10.50;;;15.50;99.90;;;;;;3577673;40;20258;-40
2021/08/06 00:59:49;;;;;;;9.82;8.93;;;15.50;99.90;;;;;;3577803;40;20242;-41
2021/08/06 01:02:24;;;;;;;9.88;8.85;;;15.50;99.90;;;;;;3577178;40;20251;-40
2021/08/06 01:05:00;;;;;;;9.60;8.30;;;15.50;99.90;;;;;;3577468;40;20243;-42
2021/08/06 01:07:33;;;;;;;9.73;8.82;;;15.50;99.90;;;;;;3578275;40;20628;-41
2021/08/06 01:10:07;;;;;;;9.68;8.77;;;15.50;99.90;;;;;;3581046;40;20246;-44
2021/08/06 01:12:56;;;;;;;9.73;8.73;;;15.50;99.90;;;;;;3579627;40;20658;-42
2021/08/06 01:15:27;;;;;;;9.63;8.88;;;15.50;99.90;;;;;;3577646;40;20272;-41
2021/08/06 01:18:00;;;;;;;9.68;8.93;;;15.50;99.90;;;;;;3577104;40;20231;-42
2021/08/06 01:20:30;;;;;;;9.93;9.07;;;15.40;99.90;;;;;;3568972;40;20316;-42
2021/08/06 01:23:04;;;;;;;10.50;9.45;;;15.40;99.90;;;;;;3577379;40;20231;-41
2021/08/06 01:25:51;;;;;;;9.95;9.05;;;15.40;99.90;;;;;;3577534;40;20661;-40
2021/08/06 01:28:28;;;;;;;9.32;8.43;;;15.40;99.90;;;;;;3577320;40;20650;-41
2021/08/06 01:30:57;;;;;;;10.32;9.13;;;15.40;99.90;;;;;;3577319;40;20259;-41
2021/08/06 01:33:25;;;;;;;10.40;9.45;;;15.40;99.90;;;;;;3578240;40;20307;-40
2021/08/06 01:35:53;;;;;;;9.60;8.75;;;15.30;99.90;;;;;;3577148;40;20299;-42
2021/08/06 01:38:21;;;;;;;11.18;9.45;;;15.30;99.90;;;;;;3577253;40;20243;-41
2021/08/06 01:41:11;;;;;;;10.88;8.93;;;15.30;99.90;;;;;;3577191;40;20239;-40
2021/08/06 01:43:43;;;;;;;10.25;8.68;;;15.20;99.90;;;;;;3577144;40;20234;-40
2021/08/06 01:46:17;;;;;;;9.30;8.45;;;15.30;99.90;;;;;;3577149;40;20781;-41
2021/08/06 01:48:52;;;;;;;9.80;8.90;;;15.30;99.90;;;;;;3577204;40;20243;-40
2021/08/06 01:51:21;;;;;;;9.35;8.65;;;15.20;99.90;;;;;;3610254;22;20243;-40
2021/08/06 01:53:52;;;;;;;8.90;8.05;;;15.20;99.90;;;;;;3577399;40;20309;-40
2021/08/06 01:56:22;;;;;;;10.02;9.00;;;15.20;99.90;;;;;;3577109;40;20316;-44
2021/08/06 01:58:56;;;;;;;9.88;8.88;;;15.20;99.90;;;;;;3576961;40;20231;-43
2021/08/06 02:01:32;;;;;;;10.27;8.32;;;15.20;99.90;;;;;;3576676;40;20325;-42
2021/08/06 02:04:10;;;;;;;10.05;9.27;;;15.20;99.90;;;;;;3577322;40;20243;-43
2021/08/06 02:06:38;;;;;;;10.45;9.65;;;15.20;99.90;;;;;;3576737;40;20235;-42
2021/08/06 02:09:15;;;;;;;10.18;9.27;;;15.20;99.90;;;;;;3568308;40;20318;-42
2021/08/06 02:11:45;;;;;;;9.75;8.95;;;15.20;99.90;;;;;;3566277;40;20251;-43
2021/08/06 02:14:19;;;;;;;10.27;9.48;;;15.20;99.90;;;;;;3566624;40;20239;-44
2021/08/06 02:16:53;;;;;;;9.80;9.10;;;15.20;99.90;;;;;;3566751;40;20235;-44
2021/08/06 02:19:28;;;;;;;9.50;8.82;;;15.20;99.90;;;;;;3566808;40;20251;-43
2021/08/06 02:22:03;;;;;;;10.48;9.60;;;15.20;99.90;;;;;;3566884;40;20231;-43
2021/08/06 02:24:35;;;;;;;11.15;10.15;;;15.30;99.90;;;;;;3568289;40;20276;-43
2021/08/06 02:27:07;;;;;;;10.07;9.18;;;15.30;99.90;;;;;;3568101;40;20614;-43
2021/08/06 02:29:39;;;;;;;9.68;8.93;;;15.40;99.90;;;;;;3568548;40;20630;-42
2021/08/06 02:32:10;;;;;;;10.18;9.38;;;15.40;99.90;;;;;;3568472;40;20279;-42
2021/08/06 02:34:39;;;;;;;9.80;9.00;;;15.40;99.90;;;;;;3568250;40;20624;-42
2021/08/06 02:37:06;;;;;;;10.82;9.95;;;15.30;99.90;;;;;;3569164;40;20248;-42
2021/08/06 02:39:34;;;;;;;10.38;9.63;;;15.30;99.90;;;;;;3569195;40;20244;-42
2021/08/06 02:42:04;;;;;;;9.57;8.88;;;15.30;99.90;;;;;;3569435;40;20255;-42
2021/08/06 02:44:34;;;;;;;10.20;8.85;;;15.30;99.90;;;;;;3569070;40;20556;-42
2021/08/06 02:47:02;;;;;;;11.07;10.18;;;15.30;99.90;;;;;;3568246;40;20340;-42
2021/08/06 02:49:31;;;;;;;9.65;8.75;;;15.30;99.90;;;;;;3568802;40;20247;-42
2021/08/06 02:52:00;;;;;;;11.05;10.25;;;15.30;99.90;;;;;;3562371;40;20314;-42
2021/08/06 02:54:27;;;;;;;10.65;9.63;;;15.30;99.90;;;;;;3578874;40;20574;-41
2021/08/06 02:56:55;;;;;;;10.40;9.35;;;15.20;99.90;;;;;;3578100;40;20584;-41
2021/08/06 02:59:23;;;;;;;10.32;8.73;;;15.10;99.90;;;;;;3578486;40;20250;-40
2021/08/06 03:01:51;;;;;;;11.55;10.38;;;15.00;99.90;;;;;;3580908;40;20249;-41
2021/08/06 03:04:20;;;;;;;9.77;8.98;;;15.00;99.90;;;;;;3583024;40;20239;-41
2021/08/06 03:06:47;;;;;;;10.65;9.65;;;15.00;99.90;;;;;;3582732;40;20250;-42
2021/08/06 03:09:17;;;;;;;12.55;11.35;;;15.00;99.90;;;;;;3582078;40;20239;-40
2021/08/06 03:11:46;;;;;;;10.27;9.38;;;15.00;99.90;;;;;;3581971;40;20277;-40
2021/08/06 03:14:14;;;;;;;9.90;9.10;;;15.00;99.90;;;;;;3581779;40;20287;-41
2021/08/06 03:16:42;;;;;;;10.32;9.52;;;15.00;99.90;;;;;;3581991;40;20243;-41
2021/08/06 03:19:11;;;;;;;9.55;8.75;;;14.90;99.90;;;;;;3582216;40;20622;-41
2021/08/06 03:21:38;;;;;;;11.52;10.35;;;14.80;99.90;;;;;;3582384;40;20250;-40
2021/08/06 03:24:06;;;;;;;10.75;9.95;;;14.80;99.90;;;;;;3582041;40;20239;-41
2021/08/06 03:26:34;;;;;;;11.98;10.70;;;14.70;99.90;;;;;;3582010;40;20242;-41
2021/08/06 03:29:01;;;;;;;11.25;10.25;;;14.60;99.90;;;;;;3581535;40;20247;-41
2021/08/06 03:31:29;;;;;;;10.57;9.63;;;14.60;99.90;;;;;;3581272;40;20317;-42
2021/08/06 03:33:57;;;;;;;11.25;10.32;;;14.70;99.90;;;;;;3581828;40;20243;-40
2021/08/06 03:36:26;;;;;;;11.52;10.63;;;14.70;99.90;;;;;;3581294;40;20328;-40
2021/08/06 03:38:56;;;;;;;11.90;9.65;;;14.70;99.90;;;;;;3581810;40;20310;-41
2021/08/06 03:41:24;;;;;;;11.43;10.52;;;14.80;99.90;;;;;;3582762;40;20238;-40
2021/08/06 03:43:54;;;;;;;11.05;10.13;;;14.80;99.90;;;;;;3581684;40;20227;-43
2021/08/06 03:46:22;;;;;;;10.75;9.25;;;14.70;99.90;;;;;;3581432;40;20649;-41
2021/08/06 03:48:49;;;;;;;11.57;10.35;;;14.70;99.90;;;;;;3581487;40;20275;-42
2021/08/06 03:51:17;;;;;;;11.95;10.85;;;14.70;99.90;;;;;;3582381;40;20287;-40
2021/08/06 03:53:45;;;;;;;10.75;9.65;;;14.70;99.90;;;;;;3571637;40;20554;-41
2021/08/06 03:56:12;;;;;;;10.73;9.88;;;14.80;99.90;;;;;;3572079;40;20240;-42
2021/08/06 03:58:40;;;;;;;10.23;8.65;;;14.80;99.90;;;;;;3572607;40;20504;-42
2021/08/06 04:01:07;;;;;;;11.10;10.20;;;14.70;99.90;;;;;;3571358;40;20240;-43
2021/08/06 04:03:36;;;;;;;10.52;9.35;;;14.70;99.90;;;;;;3572402;40;20234;-41
2021/08/06 04:06:07;;;;;;;10.55;9.75;;;14.70;99.90;;;;;;3573541;40;20809;-41
2021/08/06 04:08:34;;;;;;;10.63;9.77;;;14.70;99.90;;;;;;3570134;40;20232;-40
2021/08/06 04:11:04;;;;;;;12.20;11.20;;;14.80;99.90;;;;;;3570327;40;20240;-40
2021/08/06 04:13:30;;;;;;;12.95;11.55;;;14.80;99.90;;;;;;3570284;40;20511;-40
2021/08/06 04:15:58;;;;;;;12.98;11.98;;;14.80;99.90;;;;;;3570391;40;20232;-40
2021/08/06 04:18:25;;;;;;;13.30;12.18;;;14.80;99.90;;;;;;3571073;40;20283;-41
2021/08/06 04:20:53;;;;;;;15.20;13.55;;;14.80;99.90;;;;;;3571039;40;20255;-42
2021/08/06 04:23:21;;;;;;;13.43;12.10;;;14.90;99.90;;;;;;3571933;40;20232;-42
2021/08/06 04:25:48;;;;;;;13.38;12.07;;;14.70;99.90;;;;;;3574151;40;20243;-40
2021/08/06 04:28:16;;;;;;;12.85;11.90;;;14.80;99.90;;;;;;3573469;40;20243;-41
2021/08/06 04:30:43;;;;;;;13.55;12.30;;;14.80;99.90;;;;;;3575806;40;20614;-40
2021/08/06 04:33:11;;;;;;;15.23;13.90;;;14.80;99.90;;;;;;3567757;40;20676;-42
2021/08/06 04:35:38;;;;;;;14.77;13.50;;;14.80;99.90;;;;;;3567813;40;20255;-40
2021/08/06 04:38:05;;;;;;;14.30;12.77;;;14.80;99.90;;;;;;3567267;40;20236;-40
2021/08/06 04:40:33;;;;;;;14.05;12.95;;;14.80;99.90;;;;;;3575603;40;20527;-40
2021/08/06 04:43:01;;;;;;;15.43;14.18;;;14.80;99.90;;;;;;3567815;40;20491;-41
2021/08/06 04:45:31;;;;;;;14.73;13.35;;;14.80;99.90;;;;;;3566469;40;20240;-41
2021/08/06 04:48:00;;;;;;;14.45;13.18;;;14.70;99.90;;;;;;3570921;40;20235;-40
2021/08/06 04:50:31;;;;;;;12.65;11.65;;;14.40;99.90;;;;;;3571726;40;20232;-40
2021/08/06 04:57:01;;;;;;;12.43;11.18;;;14.20;99.90;;;;;;3563111;40;20231;-41
2021/08/06 04:59:29;;;;;;;14.23;12.77;;;14.10;99.90;;;;;;3566920;40;20231;-41
2021/08/06 05:01:57;;;;;;;12.98;11.88;;;14.20;99.90;;;;;;3567090;40;20248;-41
2021/08/06 05:04:24;;;;;;;12.07;11.05;;;14.10;99.90;;;;;;3567012;40;20627;-41
2021/08/06 05:06:51;;;;;;;14.73;13.43;;;14.10;99.90;;;;;;3566765;40;20279;-42
2021/08/06 05:09:18;;;;;;;13.82;12.43;;;14.10;99.90;;;;;;3568031;40;20243;-40
2021/08/06 05:11:46;;;;;;;12.32;11.13;;;14.20;99.90;;;;;;3567060;40;20616;-41
2021/08/06 05:14:13;;;;;;;15.68;14.10;;;14.20;99.90;;;;;;3566903;40;20243;-40
2021/08/06 05:16:40;;;;;;;14.25;12.98;;;14.50;99.90;;;;;;3567728;40;20231;-40
2021/08/06 05:19:08;;;;;;;17.10;15.50;;;14.50;99.90;;;;;;3567024;40;20251;-40
2021/08/06 05:21:35;;;;;;;16.77;15.07;;;14.50;99.90;;;;;;3566839;40;20242;-42
2021/08/06 05:24:03;;;;;;;15.63;14.32;;;14.70;99.90;;;;;;3558969;40;20243;-40
2021/08/06 05:26:30;;;;;;;15.93;14.27;;;15.00;99.90;;;;;;3567246;40;20273;-42
2021/08/06 05:28:57;;;;;;;13.88;12.57;;;15.20;99.90;;;;;;3567234;40;20263;-41
2021/08/06 05:31:25;;;;;;;14.52;13.20;;;15.30;99.90;;;;;;3566965;40;20252;-40
2021/08/06 05:33:52;;;;;;;14.63;13.43;;;15.40;99.90;;;;;;3568196;40;20243;-41
2021/08/06 05:36:20;;;;;;;13.93;12.57;;;15.60;99.90;;;;;;3567942;40;20235;-41
2021/08/06 05:38:47;;;;;;;12.70;11.50;;;15.70;99.90;;;;;;3567246;40;20250;-41
2021/08/06 05:41:14;;;;;;;20.67;18.70;;;15.60;99.90;;;;;;3567922;40;20240;-41
2021/08/06 05:43:44;;;;;;;15.43;14.02;;;15.70;99.90;;;;;;3566995;40;20598;-41
2021/08/06 05:46:11;;;;;;;13.45;12.25;;;15.90;99.90;;;;;;3566951;40;20271;-41
2021/08/06 05:48:39;;;;;;;13.18;11.82;;;15.90;99.90;;;;;;3567209;40;20235;-41
2021/08/06 05:51:07;;;;;;;12.35;11.35;;;15.90;99.90;;;;;;3567270;40;20243;-42
2021/08/06 05:53:37;;;;;;;13.27;12.05;;;16.10;99.90;;;;;;3567338;40;20248;-41
2021/08/06 05:56:05;;;;;;;11.70;10.80;;;16.10;99.90;;;;;;3566875;40;20272;-42
2021/08/06 06:03:10;;;;;;;14.90;11.10;;;16.50;99.90;;;;;;3568725;40;20247;-40
2021/08/06 06:05:48;;;;;;;13.45;10.88;;;16.60;99.90;;;;;;3566499;40;20230;-40
2021/08/06 06:08:16;;;;;;;12.88;11.57;;;16.70;99.90;;;;;;3567817;40;20247;-41
2021/08/06 06:10:45;;;;;;;10.95;10.00;;;16.80;99.90;;;;;;3567685;40;20227;-41
2021/08/06 06:13:12;;;;;;;11.90;10.90;;;16.90;99.90;;;;;;3576854;40;20247;-40
2021/08/06 06:15:39;;;;;;;10.45;9.55;;;17.00;99.90;;;;;;3567458;40;20259;-43
2021/08/06 06:18:08;;;;;;;11.80;10.90;;;17.10;99.90;;;;;;3568615;40;20231;-41
2021/08/06 06:20:35;;;;;;;11.05;10.13;;;17.30;99.90;;;;;;3568297;40;20247;-41
2021/08/06 06:23:03;;;;;;;11.38;10.38;;;17.50;99.90;;;;;;3571471;40;20324;-41
2021/08/06 06:25:31;;;;;;;9.98;9.00;;;17.40;99.90;;;;;;3567881;40;20236;-42
2021/08/06 06:28:02;;;;;;;11.80;10.80;;;17.20;99.90;;;;;;3567109;40;20241;-41
2021/08/06 06:30:36;;;;;;;11.43;10.32;;;17.30;99.90;;;;;;3567459;40;20599;-41
2021/08/06 06:33:05;;;;;;;11.40;10.40;;;17.30;99.90;;;;;;3567638;40;20244;-46
2021/08/06 06:35:35;;;;;;;10.98;10.00;;;17.40;99.90;;;;;;3569562;40;20619;-41
2021/08/06 06:38:03;;;;;;;10.60;9.77;;;17.40;99.90;;;;;;3570153;40;20608;-42
2021/08/06 06:40:31;;;;;;;11.10;10.20;;;17.40;99.90;;;;;;3570850;40;20301;-42
2021/08/06 06:43:03;;;;;;;9.63;8.82;;;17.50;99.90;;;;;;3572605;40;20243;-41
2021/08/06 06:45:30;;;;;;;9.13;8.32;;;17.50;99.90;;;;;;3576638;40;20599;-41
2021/08/06 06:47:59;;;;;;;9.35;8.55;;;17.60;99.90;;;;;;3570041;40;20241;-42
2021/08/06 06:51:23;;;;;;;8.38;7.57;;;17.80;99.90;;;;;;3563622;40;20239;-42
2021/08/06 06:53:51;;;;;;;7.50;6.95;;;18.00;99.90;;;;;;3573814;40;20236;-42
2021/08/06 06:56:18;;;;;;;8.70;7.82;;;18.20;99.90;;;;;;3571824;40;20267;-43
2021/08/06 06:58:46;;;;;;;8.75;7.97;;;18.20;99.90;;;;;;3563365;40;20259;-42
2021/08/06 07:01:17;;;;;;;8.65;7.65;;;18.20;99.90;;;;;;3564173;40;20244;-41
2021/08/06 07:03:44;;;;;;;9.48;8.68;;;18.20;99.90;;;;;;3566701;40;20243;-44
2021/08/06 07:06:28;;;;;;;8.82;8.13;;;18.10;99.90;;;;;;3633495;23;20289;-80
2021/08/06 07:08:56;;;;;;;8.13;7.47;;;18.30;99.90;;;;;;3577943;40;20329;-78
2021/08/06 07:11:23;;;;;;;9.00;8.10;;;18.70;99.90;;;;;;3578032;40;20235;-75
2021/08/06 07:13:51;;;;;;;9.68;8.77;;;18.70;99.90;;;;;;3580716;40;20247;-78
2021/08/06 07:16:19;;;;;;;10.75;9.82;;;18.80;99.90;;;;;;3579624;40;20615;-76
2021/08/06 07:18:49;;;;;;;10.23;9.13;;;18.80;99.90;;;;;;3633578;22;20252;-43
2021/08/06 07:21:16;;;;;;;8.93;8.30;;;18.90;99.90;;;;;;3567785;40;20535;-41
2021/08/06 07:23:44;;;;;;;9.15;8.32;;;19.10;99.90;;;;;;3567865;40;20274;-41
2021/08/06 07:26:11;;;;;;;9.27;8.10;;;19.30;99.90;;;;;;3568881;40;20239;-45
2021/08/06 07:28:42;;;;;;;8.93;8.23;;;19.10;99.90;;;;;;3571150;40;20263;-43
2021/08/06 07:31:11;;;;;;;8.93;8.13;;;19.20;99.90;;;;;;3571779;40;20247;-43
2021/08/06 07:33:38;;;;;;;8.63;7.93;;;19.40;99.90;;;;;;3602849;23;20244;-43
2021/08/06 07:36:05;;;;;;;8.45;7.75;;;19.40;99.90;;;;;;3568466;40;20266;-41
2021/08/06 07:38:32;;;;;;;8.82;7.93;;;19.40;99.90;;;;;;3567934;40;20250;-42
2021/08/06 07:41:00;;;;;;;8.38;7.65;;;19.10;99.90;;;;;;3567585;40;20243;-41
2021/08/06 07:43:28;;;;;;;7.95;7.28;;;18.90;99.90;;;;;;3567901;40;20636;-45
2021/08/06 07:45:55;;;;;;;7.72;7.03;;;18.80;99.90;;;;;;3567759;40;20321;-42
2021/08/06 07:48:24;;;;;;;8.55;7.75;;;18.90;99.90;;;;;;3568542;40;20255;-41
2021/08/06 07:50:51;;;;;;;8.10;7.45;;;19.20;99.90;;;;;;3569304;40;20248;-43
2021/08/06 07:53:19;;;;;;;7.50;6.90;;;19.50;99.90;;;;;;3567727;40;20267;-43
2021/08/06 07:55:47;;;;;;;7.55;6.93;;;19.70;99.90;;;;;;3568240;40;20267;-42
2021/08/06 07:58:14;;;;;;;7.53;6.93;;;20.10;99.90;;;;;;3568133;40;20243;-43
2021/08/06 08:00:41;;;;;;;7.30;6.80;;;20.10;99.90;;;;;;3567887;40;20232;-41
2021/08/06 08:03:08;;;;;;;7.15;6.55;;;20.30;99.90;;;;;;3568635;40;20243;-42
2021/08/06 08:05:39;;;;;;;6.90;6.22;;;20.20;99.90;;;;;;3567842;40;20275;-44
2021/08/06 08:08:08;;;;;;;5.85;5.45;;;20.00;99.90;;;;;;3570139;40;20247;-42
2021/08/06 08:10:37;;;;;;;6.68;6.18;;;20.00;99.90;;;;;;3570328;40;20243;-42
2021/08/06 08:13:04;;;;;;;7.05;6.10;;;20.10;99.90;;;;;;3569057;40;20268;-43
2021/08/06 08:15:32;;;;;;;6.35;5.85;;;20.10;99.90;;;;;;3567748;40;20244;-42
2021/08/06 08:18:00;;;;;;;5.95;5.47;;;20.40;99.90;;;;;;3567471;40;20256;-42
2021/08/06 08:20:27;;;;;;;6.35;5.85;;;20.40;99.90;;;;;;3568007;40;20607;-42
2021/08/06 08:22:56;;;;;;;6.18;5.70;;;20.10;99.90;;;;;;3567804;40;20709;-42
2021/08/06 08:25:23;;;;;;;7.38;6.82;;;19.90;99.90;;;;;;3568570;40;20251;-43
2021/08/06 08:27:50;;;;;;;6.70;6.10;;;19.90;99.90;;;;;;3568369;40;20239;-41
2021/08/06 08:30:18;;;;;;;5.80;5.40;;;20.10;99.90;;;;;;3568403;40;20284;-42
2021/08/06 08:32:45;;;;;;;5.72;5.22;;;20.20;99.90;;;;;;3568365;40;20239;-47
2021/08/06 08:35:14;;;;;;;7.18;6.25;;;20.40;99.90;;;;;;3567657;40;20236;-43
2021/08/06 08:37:41;;;;;;;5.97;5.47;;;20.80;99.90;;;;;;3567413;40;20251;-43
2021/08/06 08:40:11;;;;;;;6.15;5.65;;;20.90;99.90;;;;;;3559245;40;20256;-43
2021/08/06 08:42:40;;;;;;;5.28;4.88;;;21.10;99.90;;;;;;3567648;40;20248;-42
2021/08/06 08:45:09;;;;;;;5.50;5.10;;;20.90;99.90;;;;;;3567337;40;20268;-42
2021/08/06 08:47:46;;;;;;;6.05;4.47;;;20.80;99.90;;;;;;3567071;40;20247;-43
2021/08/06 08:50:15;;;;;;;5.07;4.45;;;21.10;99.90;;;;;;3567903;40;20236;-42
2021/08/06 08:52:43;;;;;;;4.97;4.28;;;21.20;99.90;;;;;;3567631;40;20369;-41
2021/08/06 08:55:14;;;;;;;5.13;4.65;;;21.40;99.90;;;;;;3567187;40;20250;-42
2021/08/06 08:57:41;;;;;;;5.65;5.25;;;21.10;99.90;;;;;;3559392;40;20243;-43
2021/08/06 09:00:13;;;;;;;4.65;4.35;;;21.20;99.90;;;;;;3568878;40;20600;-42
2021/08/06 09:02:40;;;;;;;6.35;5.75;;;21.40;99.90;;;;;;3567863;40;20663;-42
2021/08/06 09:05:12;;;;;;;4.72;4.35;;;21.40;99.90;;;;;;3567195;40;20236;-44
2021/08/06 09:07:44;;;;;;;4.70;4.30;;;21.50;99.90;;;;;;3567395;40;20239;-43
2021/08/06 09:10:25;;;;;;;4.97;4.47;;;21.60;99.90;;;;;;3567987;40;20239;-43
2021/08/06 09:13:11;;;;;;;5.38;4.97;;;22.00;99.90;;;;;;3568274;40;20243;-42
2021/08/06 09:15:46;;;;;;;5.85;4.15;;;22.10;99.90;;;;;;3567170;40;20248;-43
2021/08/06 09:18:31;;;;;;;4.63;4.22;;;22.50;99.90;;;;;;3568048;40;20297;-42
2021/08/06 09:21:00;;;;;;;4.75;4.35;;;22.30;99.90;;;;;;3568335;40;20267;-43
2021/08/06 09:23:38;;;;;;;4.50;4.20;;;22.20;99.90;;;;;;3568207;40;20243;-42
2021/08/06 09:26:08;;;;;;;9.48;5.03;;;22.10;99.90;;;;;;3568184;40;20254;-42
2021/08/06 09:28:55;;;;;;;4.97;4.47;;;22.00;99.90;;;;;;3568271;40;20324;-41
2021/08/06 09:31:22;;;;;;;4.45;4.13;;;21.80;99.90;;;;;;3568185;40;20250;-42
2021/08/06 09:33:49;;;;;;;5.28;4.88;;;21.90;99.90;;;;;;3567840;40;20255;-42
2021/08/06 09:36:16;;;;;;;5.35;4.85;;;21.90;99.90;;;;;;3568361;40;20515;-43
2021/08/06 09:38:43;;;;;;;5.55;5.00;;;21.90;99.90;;;;;;3568374;40;20247;-41
2021/08/06 09:41:42;;;;;;;4.22;3.92;;;21.70;99.90;;;;;;3567637;40;20251;-41
2021/08/06 09:44:17;;;;;;;5.45;3.65;;;21.80;99.90;;;;;;3567899;40;20248;-42
2021/08/06 09:46:45;;;;;;;4.63;3.67;;;21.90;99.90;;;;;;3567752;40;20231;-41
2021/08/06 09:49:12;;;;;;;4.35;4.05;;;22.30;99.90;;;;;;3567889;40;20236;-42
2021/08/06 09:51:41;;;;;;;4.10;3.80;;;22.00;99.90;;;;;;3567905;40;20256;-41
2021/08/06 09:54:18;;;;;;;4.43;4.13;;;21.80;99.90;;;;;;3559697;40;20291;-41
2021/08/06 09:56:48;;;;;;;4.32;4.00;;;21.60;99.90;;;;;;3557653;40;20240;-41
2021/08/06 09:59:26;;;;;;;6.10;3.47;;;21.70;99.90;;;;;;3558987;40;20516;-43
2021/08/06 10:02:10;;;;;;;3.67;3.38;;;21.90;99.90;;;;;;3558161;40;20236;-44
2021/08/06 10:04:38;;;;;;;4.13;3.83;;;22.10;99.90;;;;;;3558321;40;20251;-43
2021/08/06 10:07:06;;;;;;;3.92;3.58;;;22.80;99.90;;;;;;3558104;40;20236;-42
2021/08/06 10:09:33;;;;;;;3.90;3.50;;;23.00;99.90;;;;;;3558595;40;20487;-42
2021/08/06 10:12:02;;;;;;;4.55;4.15;;;23.20;99.90;;;;;;3557984;40;20243;-42
2021/08/06 10:14:29;;;;;;;4.65;4.22;;;23.00;99.90;;;;;;3557864;40;20255;-41
2021/08/06 10:16:56;;;;;;;7.20;4.60;;;23.00;99.90;;;;;;3558726;40;20251;-42
2021/08/06 10:19:23;;;;;;;3.60;3.40;;;22.60;99.90;;;;;;3558605;40;20815;-42
2021/08/06 10:21:50;;;;;;;4.85;3.78;;;22.60;99.90;;;;;;3564674;40;20232;-42
2021/08/06 10:24:18;;;;;;;3.72;3.42;;;22.50;99.90;;;;;;3567799;40;20231;-42
2021/08/06 10:26:45;;;;;;;4.70;4.05;;;22.40;99.90;;;;;;3567747;40;20235;-42
2021/08/06 10:29:14;;;;;;;5.50;4.35;;;22.50;99.90;;;;;;3567344;40;20239;-41
2021/08/06 10:31:42;;;;;;;10.98;4.15;;;22.10;99.90;;;;;;3567620;40;20248;-43
2021/08/06 10:34:11;;;;;;;4.22;3.92;;;22.10;99.90;;;;;;3567448;40;20244;-43
2021/08/06 10:36:41;;;;;;;3.60;3.30;;;22.10;99.90;;;;;;3567968;40;20248;-43
2021/08/06 10:39:43;;;;;;;4.45;3.95;;;22.10;99.90;;;;;;3567730;40;20242;-42
2021/08/06 10:43:03;;;;;;;3.58;3.08;;;22.00;99.90;;;;;;3567478;40;20708;-43
2021/08/06 10:45:56;;;;;;;3.60;3.13;;;22.00;99.90;;;;;;3566380;40;20550;-41
2021/08/06 10:48:35;;;;;;;3.17;2.90;;;21.90;99.90;;;;;;3566908;40;20248;-42
2021/08/06 10:51:26;;;;;;;3.13;2.90;;;21.80;99.90;;;;;;3569544;40;20243;-42
2021/08/06 10:54:35;;;;;;;3.10;2.90;;;21.80;99.90;;;;;;3557920;40;20252;-43
2021/08/06 10:57:32;;;;;;;3.85;3.47;;;21.90;99.90;;;;;;3558867;40;20240;-42
2021/08/06 11:00:01;;;;;;;2.75;2.55;;;21.80;99.90;;;;;;3559345;40;20244;-42
2021/08/06 11:02:47;;;;;;;4.20;2.65;;;21.50;99.90;;;;;;3559540;40;20252;-42
2021/08/06 11:05:40;;;;;;;3.05;2.85;;;21.20;99.90;;;;;;3567388;40;20234;-42
2021/08/06 11:08:47;;;;;;;3.33;3.03;;;21.00;99.90;;;;;;3559504;40;20240;-44
2021/08/06 11:11:49;;;;;;;3.83;3.38;;;21.10;99.90;;;;;;3569537;40;20248;-44
2021/08/06 11:14:18;;;;;;;3.03;2.72;;;21.40;99.90;;;;;;3569175;40;20247;-42
2021/08/06 11:16:59;;;;;;;3.67;2.78;;;21.60;99.90;;;;;;3568102;40;20247;-42
2021/08/06 11:19:29;;;;;;;3.38;3.08;;;21.70;99.90;;;;;;3569515;40;20240;-42
2021/08/06 11:21:57;;;;;;;2.20;2.05;;;22.00;99.90;;;;;;3568821;40;20251;-42
2021/08/06 11:24:24;;;;;;;2.30;2.20;;;21.90;99.90;;;;;;3568966;40;20346;-42
2021/08/06 11:26:52;;;;;;;2.85;2.65;;;21.90;99.90;;;;;;3568702;40;20493;-42
2021/08/06 11:29:19;;;;;;;2.45;2.33;;;21.70;99.90;;;;;;3569535;40;20279;-42
2021/08/06 11:31:59;;;;;;;1.92;1.83;;;21.80;99.90;;;;;;3568872;40;20252;-43
2021/08/06 11:34:27;;;;;;;2.95;2.75;;;21.80;99.90;;;;;;3568980;40;20243;-43
2021/08/06 11:36:59;;;;;;;2.53;2.33;;;22.30;99.90;;;;;;3568887;40;20243;-43
2021/08/06 11:39:27;;;;;;;2.45;2.25;;;22.60;99.90;;;;;;3568827;40;20596;-43
2021/08/06 11:41:55;;;;;;;2.58;2.38;;;22.90;99.90;;;;;;3561776;40;20243;-43
2021/08/06 11:44:22;;;;;;;2.38;2.17;;;23.10;99.90;;;;;;3559353;40;20527;-42
2021/08/06 11:46:51;;;;;;;3.30;2.08;;;22.90;99.90;;;;;;3558805;40;20281;-42
2021/08/06 11:49:19;;;;;;;4.25;2.38;;;23.00;99.90;;;;;;3559041;40;20530;-43
2021/08/06 11:51:53;;;;;;;2.55;2.35;;;23.00;99.90;;;;;;3559393;40;20243;-42
2021/08/06 11:54:22;;;;;;;3.20;2.88;;;22.90;99.90;;;;;;3558483;40;20651;-43
2021/08/06 11:56:57;;;;;;;3.53;3.15;;;22.50;99.90;;;;;;3559020;40;20244;-42
2021/08/06 11:59:24;;;;;;;5.32;3.67;;;21.90;99.90;;;;;;3558557;40;20247;-44
2021/08/06 12:02:15;;;;;;;3.63;3.33;;;21.60;99.90;;;;;;3559516;40;20335;-44
2021/08/06 12:04:42;;;;;;;4.13;3.22;;;21.40;99.90;;;;;;3558115;40;20588;-43
2021/08/06 12:07:10;;;;;;;2.72;2.53;;;21.30;99.90;;;;;;3560241;40;20244;-43
2021/08/06 12:09:38;;;;;;;2.53;2.33;;;21.40;99.90;;;;;;3568081;40;20286;-44
2021/08/06 12:12:05;;;;;;;2.88;1.77;;;21.30;99.90;;;;;;3567495;40;20235;-43
2021/08/06 12:14:32;;;;;;;3.58;2.15;;;21.30;99.90;;;;;;3567956;40;20242;-45
2021/08/06 12:16:59;;;;;;;3.47;1.80;;;21.50;99.90;;;;;;3567962;40;20246;-44
2021/08/06 12:19:26;;;;;;;1.90;1.80;;;21.60;99.90;;;;;;3568582;40;20246;-43
2021/08/06 12:21:53;;;;;;;2.33;1.88;;;21.60;99.90;;;;;;3568911;40;20247;-43
2021/08/06 12:24:22;;;;;;;1.73;1.50;;;21.50;99.90;;;;;;3567500;40;20496;-43
2021/08/06 12:26:51;;;;;;;2.25;2.05;;;21.20;99.90;;;;;;3563680;40;20608;-43
2021/08/06 12:29:20;;;;;;;2.63;1.83;;;21.40;99.90;;;;;;3568588;40;20259;-43
2021/08/06 12:31:54;;;;;;;2.25;2.10;;;21.40;99.90;;;;;;3568452;40;20242;-43
2021/08/06 12:34:23;;;;;;;5.75;2.35;;;21.40;99.90;;;;;;3568219;40;20669;-43
2021/08/06 12:36:57;;;;;;;2.50;2.30;;;21.30;99.90;;;;;;3569091;40;20477;-43
2021/08/06 12:39:27;;;;;;;3.05;2.72;;;21.20;99.90;;;;;;3569169;40;20251;-44
2021/08/06 12:41:54;;;;;;;6.25;2.70;;;21.30;99.90;;;;;;3568185;40;20235;-43
2021/08/06 12:44:29;;;;;;;2.58;2.38;;;20.80;99.90;;;;;;3568287;40;20251;-45
2021/08/06 12:47:08;;;;;;;1.98;1.88;;;20.70;99.90;;;;;;3568691;40;20243;-44
2021/08/06 12:49:38;;;;;;;3.00;2.53;;;20.80;99.90;;;;;;3568297;40;20239;-44
2021/08/06 12:52:08;;;;;;;2.70;2.47;;;20.80;99.90;;;;;;3567940;40;20607;-42
2021/08/06 12:54:40;;;;;;;2.35;2.10;;;20.80;99.90;;;;;;3567799;40;20611;-42
2021/08/06 12:57:09;;;;;;;3.33;2.00;;;20.60;99.90;;;;;;3568457;40;20493;-43
2021/08/06 12:59:37;;;;;;;2.22;2.03;;;20.60;99.90;;;;;;3568088;40;20236;-42
2021/08/06 13:02:19;;;;;;;1.88;1.77;;;20.50;99.90;;;;;;3567897;40;20232;-44
2021/08/06 13:04:48;;;;;;;1.80;1.70;;;20.40;99.90;;;;;;3568276;40;20254;-42
2021/08/06 13:07:26;;;;;;;2.30;1.58;;;20.20;99.90;;;;;;3567439;40;20239;-42